EW2349 Weather Reports


Display with metric or nautical units.
time (UTC)temp
F
wind
direction
speed
MPH
gust
MPH
rain 1hr
in
rain 24hr
in
rain mn
in
humidity
%
barometer
mb
20210619070152 51 211 0.0 1.0 0.00 0.00 0.00 81 1012.4
20210619064627 51 211 0.0 2.0 0.00 0.00 0.00 80 1012.5
20210619063119 52 211 0.0 3.0 0.00 0.00 0.00 80 1012.3
20210619061648 52 211 1.0 4.0 0.00 0.00 0.00 79 1012.2
20210619060055 53 211 3.0 5.0 0.00 0.00 0.00 78 1012.2
20210619054639 54 198 0.0 3.0 0.00 0.00 0.00 76 1012.1
20210619053052 55 196 1.0 5.0 0.00 0.00 0.00 74 1012.1
20210619051636 55 184 3.0 5.0 0.00 0.00 0.00 74 1012.0
20210619050102 56 176 2.0 5.0 0.00 0.00 0.00 73 1012.0
20210619044637 57 208 1.0 4.0 0.00 0.00 0.00 71 1012.2
20210619043334 58 122 1.0 5.0 0.00 0.00 0.00 70 1012.2
20210619041611 59 360 0.0 2.0 0.00 0.00 0.00 66 1012.1
20210619040137 60 155 2.0 4.0 0.00 0.00 0.00 63 1012.1
20210619034615 62 80 0.0 1.0 0.00 0.00 0.00 60 1012.0
20210619033144 64 49 0.0 0.0 0.00 0.00 0.00 57 1011.9
20210619031621 66 30 0.0 0.0 0.00 0.00 0.00 55 1011.8
20210619030102 68 30 0.0 0.0 0.00 0.00 0.00 54 1011.8
20210619024544 69 30 0.0 0.0 0.00 0.00 0.00 50 1011.8
20210619023050 69 30 0.0 1.0 0.00 0.00 0.00 51 1011.8
20210619021552 69 28 1.0 6.0 0.00 0.00 0.00 51 1011.8
20210619020043 70 23 5.0 8.0 0.00 0.00 0.00 48 1011.7
20210619014605 71 20 7.0 11.0 0.00 0.00 0.00 46 1011.5
20210619013047 71 355 7.0 11.0 0.00 0.00 0.00 45 1011.7
20210619011540 72 9 8.0 12.0 0.00 0.00 0.00 45 1011.7
20210619010100 73 5 9.0 14.0 0.00 0.00 0.00 42 1011.7
20210619004548 74 348 8.0 15.0 0.00 0.00 0.00 40 1011.4
20210619003049 74 360 8.0 15.0 0.00 0.00 0.00 39 1011.3
20210619001646 75 342 9.0 14.0 0.00 0.00 0.00 38 1011.5
20210619000110 75 346 8.0 15.0 0.00 0.00 0.00 39 1011.5
20210618234607 74 296 9.0 15.0 0.00 0.00 0.00 38 1011.5
20210618233043 75 355 7.0 14.0 0.00 0.00 0.00 37 1011.6
20210618231559 75 360 8.0 13.0 0.00 0.00 0.00 38 1011.7
20210618230101 75 314 8.0 15.0 0.00 0.00 0.00 37 1011.9
20210618224611 75 5 10.0 14.0 0.00 0.00 0.00 38 1012.0
20210618223030 75 290 10.0 16.0 0.00 0.00 0.00 36 1012.0
20210618221524 74 289 6.0 15.0 0.00 0.00 0.00 38 1012.1
20210618220049 74 13 7.0 14.0 0.00 0.00 0.00 39 1012.3
20210618214526 74 327 6.0 14.0 0.00 0.00 0.00 39 1012.4
20210618213043 74 339 7.0 14.0 0.00 0.00 0.00 40 1012.5
20210618211541 74 360 10.0 15.0 0.00 0.00 0.00 40 1012.6
20210618210026 73 26 6.0 17.0 0.00 0.00 0.00 42 1012.8
20210618204530 72 325 10.0 16.0 0.00 0.00 0.00 43 1012.9
20210618203028 72 325 10.0 18.0 0.00 0.00 0.00 44 1013.3
20210618201514 72 298 7.0 16.0 0.00 0.00 0.00 44 1013.4
20210618200027 71 313 9.0 21.0 0.00 0.00 0.00 45 1013.6
20210618194536 71 337 9.0 18.0 0.00 0.00 0.00 44 1013.8
20210618193006 71 340 11.0 21.0 0.00 0.00 0.00 46 1013.8
20210618191523 71 323 11.0 19.0 0.00 0.00 0.00 44 1013.8
20210618190003 72 292 10.0 19.0 0.00 0.00 0.00 42 1013.8
20210618184620 71 234 10.0 17.0 0.00 0.00 0.00 44 1013.8
20210618183156 70 309 7.0 16.0 0.00 0.00 0.00 46 1013.9
20210618181614 70 304 8.0 18.0 0.00 0.00 0.00 44 1014.0
20210618180110 70 350 8.0 18.0 0.00 0.00 0.00 43 1014.0
20210618174633 69 333 10.0 16.0 0.00 0.00 0.00 47 1014.0
20210618173209 69 360 9.0 17.0 0.00 0.00 0.00 47 1013.9
20210618171656 68 293 7.0 17.0 0.00 0.00 0.00 50 1014.0
20210618170138 67 290 9.0 20.0 0.00 0.00 0.00 49 1014.0
20210618164554 67 311 11.0 17.0 0.00 0.00 0.00 50 1014.0
20210618163044 67 288 8.0 18.0 0.00 0.00 0.00 50 1014.1
20210618161543 66 321 10.0 19.0 0.00 0.00 0.00 51 1014.0
20210618160057 65 287 10.0 18.0 0.00 0.00 0.00 53 1014.0
20210618154546 65 338 14.0 21.0 0.00 0.00 0.00 52 1014.0
20210618153023 64 5 13.0 21.0 0.00 0.00 0.00 54 1013.9
20210618151514 64 321 10.0 18.0 0.00 0.00 0.00 57 1013.9
20210618150009 63 321 9.0 17.0 0.00 0.00 0.00 58 1013.9
20210618144506 61 344 11.0 15.0 0.00 0.00 0.00 60 1013.9
20210618143124 61 355 10.0 17.0 0.00 0.00 0.00 60 1014.2
20210618141751 61 341 13.0 20.0 0.00 0.00 0.00 59 1014.1
20210618140110 60 322 9.0 13.0 0.00 0.00 0.00 63 1013.9
20210618134648 59 320 6.0 12.0 0.00 0.00 0.00 64 1014.0
20210618133220 58 288 6.0 10.0 0.00 0.00 0.00 66 1013.9
20210618131613 57 275 6.0 10.0 0.00 0.00 0.00 66 1014.0
20210618130044 56 345 5.0 10.0 0.00 0.00 0.00 66 1014.0
20210618124643 55 300 4.0 9.0 0.00 0.00 0.00 69 1014.0
20210618123118 54 281 4.0 9.0 0.00 0.00 0.00 71 1013.9
20210618121556 52 295 5.0 8.0 0.00 0.00 0.00 74 1013.6
20210618120033 49 289 6.0 10.0 0.00 0.00 0.00 77 1013.4
20210618114540 48 300 4.0 9.0 0.00 0.00 0.00 79 1013.3
20210618113022 48 343 6.0 10.0 0.00 0.00 0.00 79 1013.0
20210618111520 47 320 5.0 7.0 0.00 0.00 0.00 79 1012.8
20210618110035 49 5 5.0 9.0 0.00 0.00 0.00 74 1012.6
20210618104522 50 326 4.0 7.0 0.00 0.00 0.00 72 1012.5
20210618103011 50 311 3.0 9.0 0.00 0.00 0.00 71 1012.6
20210618101521 49 296 5.0 8.0 0.00 0.00 0.00 73 1012.5
20210618100004 50 294 4.0 6.0 0.00 0.00 0.00 72 1012.6
20210618094506 51 288 4.0 6.0 0.00 0.00 0.00 70 1012.5
20210618093124 52 306 4.0 8.0 0.00 0.00 0.00 68 1012.3
20210618091623 51 326 6.0 11.0 0.00 0.00 0.00 70 1012.4
20210618090143 49 326 5.0 10.0 0.00 0.00 0.00 71 1012.3
20210618084614 49 332 7.0 14.0 0.00 0.00 0.00 71 1012.0
20210618083131 49 350 5.0 9.0 0.00 0.00 0.00 73 1012.1
20210618081625 47 308 5.0 9.0 0.00 0.00 0.00 74 1011.9
20210618080113 48 346 7.0 14.0 0.00 0.00 0.00 73 1011.4
20210618074612 50 333 0.0 2.0 0.00 0.00 0.00 68 1010.9
20210618073043 50 333 1.0 3.0 0.00 0.00 0.00 69 1010.8
20210618071617 50 246 0.0 5.0 0.00 0.00 0.00 70 1010.8